• Join FlightAware (Why Join?)
  • Login
  • US Flag 
03:57AM EST


 

Airport Tracker/Info


-or-


 

Live Flight TrackerFlight Track Log ✈ PDT4227 ✈ 24-Jun-2013 ✈ KEWN - KCLT

Flight Track Log - Related Links

Times and Time Zones

All times are in EDT time to prevent confusion due to time zone crossing. See the PDT4227 flight status page for this flight to view local times or setup timezone preferences in your user account.

Time Position Orientation Groundspeed Altitude Reporting Facility
EDT Latitude Longitude Course Direction KTS MPH feet Rate Location/Type
03:12PM 34.9763 -77.1403 220° Southwest  Level FlightAware Approximate
03:13PM 34.9300 -77.1907 225° Southwest  Level FlightAware Approximate
03:13PM 34.9689 -77.1661 270° West 161 185 4,300  Level Washington Center
03:14PM 34.8853 -77.2443 225° Southwest  Level FlightAware Approximate
03:14PM 34.9308 -77.2083 222° Southwest 171 197 5,400  Level Washington Center
03:15PM 34.8407 -77.2979 225° Southwest  Level FlightAware Approximate
03:15PM 34.8967 -77.2533 227° Southwest 181 208 6,700  Level Washington Center
03:16PM 34.7961 -77.3514 225° Southwest  Level FlightAware Approximate
03:16PM 34.8586 -77.2956 222° Southwest 187 215 7,900  Level Washington Center
03:17PM 34.7497 -77.4027 223° Southwest  Level FlightAware Approximate
03:17PM 34.8247 -77.3353 224° Southwest 193 222 9,000  Level Washington Center
03:18PM 34.7499 -77.4801 270° West  Level FlightAware Approximate
03:18PM 34.7886 -77.3750 222° Southwest 193 222 10,000  Level Washington Center
03:19PM 34.7503 -77.4222 225° Southwest 193 222 11,000 1,020 Climbing Washington Center
03:20PM 34.7122 -77.4642 222° Southwest 198 228 12,100 1,020 Climbing Washington Center
03:21PM 34.6719 -77.5089 222° Southwest 198 228 13,100 960 Climbing Washington Center
03:22PM 34.6314 -77.5583 225° Southwest 198 228 14,100 960 Climbing Washington Center
03:23PM 34.5908 -77.6053 224° Southwest 198 228 15,100 900 Climbing Washington Center
03:24PM 34.5483 -77.6522 222° Southwest 203 234 16,000 420 Climbing Washington Center
03:25PM 34.5017 -77.7064 224° Southwest 210 242 16,000  Level Washington Center
03:26PM 34.4506 -77.7631 222° Southwest 234 269 16,000  Level Washington Center
03:27PM 34.3992 -77.8244 225° Southwest 254 292 16,000  Level Washington Center
03:28PM 34.3481 -77.8861 225° Southwest 259 298 16,000  Level Washington Center
03:30PM 34.2483 -78.0494 234° Southwest 254 292 16,000  Level Jacksonville Center
03:31PM 34.2139 -78.1317 243° Southwest 265 305 16,000  Level Jacksonville Center
03:32PM 34.1897 -78.2133 250° West 265 305 16,000  Level Jacksonville Center
03:33PM 34.1636 -78.2975 249° West 265 305 16,000  Level Jacksonville Center
03:34PM 34.1397 -78.3817 251° West 265 305 16,000  Level Jacksonville Center
03:35PM 34.1217 -78.4653 255° West 265 305 16,000  Level Jacksonville Center
03:36PM 34.1081 -78.5489 259° West 265 305 16,000  Level Jacksonville Center
03:37PM 34.1047 -78.6342 267° West 265 305 16,000  Level Jacksonville Center
03:38PM 34.0992 -78.7222 266° West 260 299 16,000  Level Jacksonville Center
03:39PM 34.0917 -78.8103 264° West 260 299 16,000  Level Jacksonville Center
03:40PM 34.0881 -78.8958 267° West 260 299 16,000  Level Jacksonville Center
03:41PM 34.0783 -78.9814 262° West 260 299 16,000  Level Jacksonville Center
03:42PM 34.0706 -79.0669 264° West 255 293 16,000  Level Jacksonville Center
03:43PM 34.0606 -79.1503 262° West 255 293 16,000  Level Jacksonville Center
03:44PM 34.0506 -79.2333 262° West 255 293 16,000  Level Jacksonville Center
03:45PM 34.0425 -79.3189 264° West 255 293 16,000  Level Jacksonville Center
03:46PM 34.0303 -79.4044 260° West 260 299 16,000  Level Jacksonville Center
03:47PM 34.0283 -79.4847 268° West 253 291 16,000  Level Jacksonville Center
03:49PM 34.0169 -79.5815 262° West  Level FlightAware Approximate
03:50PM 33.9997 -79.7539 262° West 264 304 16,000  Level Jacksonville Center
03:51PM 33.9894 -79.8419 262° West 269 310 16,000  Level Jacksonville Center
03:52PM 33.9808 -79.9247 263° West 269 310 16,000  Level Jacksonville Center
03:53PM 33.9725 -80.0103 263° West 264 304 16,000  Level Jacksonville Center
03:54PM 33.9619 -80.0983 262° West 264 304 16,000  Level Jacksonville Center
03:55PM 33.9514 -80.1811 261° West 264 304 16,000  Level Jacksonville Center
03:56PM 33.9474 -80.1534 262° West  Level FlightAware Approximate
03:56PM 33.9719 -80.2658 286° West 259 298 16,000  Level Jacksonville Center
03:57PM 33.9903 -80.3503 285° West 259 298 15,200 -900 Descending Jacksonville Center
03:58PM 34.0067 -80.4400 282° West 264 304 14,300 -600 Descending Jacksonville Center
03:59PM 34.0186 -80.5275 279° West 264 304 14,000 -180 Descending Jacksonville Center
04:00PM 34.0328 -80.6097 282° West 264 304 14,000  Level Jacksonville Center
04:01PM 34.0364 -80.6897 273° West 251 289 14,000  Level Jacksonville Center
04:02PM 34.0378 -80.7750 271° West 251 289 14,000  Level Jacksonville Center
04:03PM 34.0494 -80.8525 280° West 251 289 14,000  Level Jacksonville Center
04:04PM 34.0653 -80.9297 284° West 251 289 14,000  Level Jacksonville Center
04:05PM 34.0831 -81.0069 286° West 251 289 14,000  Level Jacksonville Center
04:06PM 34.1028 -81.0744 289° West 246 283 14,000 -600 Level Jacksonville Center
04:08PM 34.1717 -81.2469 296° West 254 292 12,200 -960 Descending Atlanta Center
04:09PM 34.2392 -81.2847 335° Northwest 254 292 11,200 -600 Descending Atlanta Center
04:10PM 34.3089 -81.3203 337° Northwest 263 303 11,000 -120 Descending Atlanta Center
04:11PM 34.3722 -81.3558 335° Northwest 257 296 11,000  Level Atlanta Center
04:12PM 34.4378 -81.3917 336° Northwest 252 290 11,000  Level Atlanta Center
04:13PM 34.4925 -81.4178 339° North 250 288 11,000  Level Atlanta Center
04:14PM 34.5719 -81.4153 North 245 282 11,000  Level Atlanta Center
04:15PM 34.6422 -81.3928 15° North 245 282 11,000  Level Atlanta Center
04:16PM 34.7147 -81.3653 17° North 262 302 11,000  Level Atlanta Center
04:17PM 34.7853 -81.3428 15° North 255 293 11,000 -60 Level Atlanta Center
04:18PM 34.8558 -81.3228 13° North 260 299 10,900 -540 Descending Atlanta Center
04:19PM 34.9281 -81.2900 20° North 267 307 10,000 -900 Descending Atlanta Center
04:20PM 34.9808 -81.2225 46° Northeast 267 307 9,100 -660 Descending Atlanta Center
04:21PM 35.0172 -81.1731 48° Northeast 279 321 9,000 -120 Descending Atlanta Center
04:22PM 35.0550 -81.0981 58° Northeast 261 300 9,000  Level Atlanta Center
04:23PM 35.0761 -81.0211 71° East 258 297 9,000  Level Atlanta Center
04:24PM 35.1139 -80.9511 57° Northeast 253 291 9,000  Level Atlanta Center
04:25PM 35.1622 -80.8758 52° Northeast 255 293 9,000 -660 Level Atlanta Center
04:26PM 35.2083 -80.8078 50° Northeast 253 291 7,700 -1,740 Descending Atlanta Center
04:27PM 35.2569 -80.7525 43° Northeast 242 278 5,500 -1,740 Descending Atlanta Center
04:28PM 35.2936 -80.7944 317° Northwest 195 224 4,400 -1,200 Descending Atlanta Center